Time;durP1;ratioP1;P1;durP2;ratioP2;P2;SDS_P1;SDS_P2;PMS_P1;PMS_P2;Temp;Humidity;BMP_temperature;BMP_pressure;BME280_temperature;BME280_humidity;BME280_pressure;Samples;Min_cycle;Max_cycle;Signal;HPM_P1;HPM_P2
2022/08/26 00:01:40;;;;;;;2.25;0.80;;;;;;;16.63;100.00;101246.47;5028979;28;20049;-87
2022/08/26 00:04:10;;;;;;;2.55;1.00;;;;;;;16.38;100.00;101241.66;5031106;28;20057;-87
2022/08/26 00:06:37;;;;;;;3.70;0.88;;;;;;;16.45;100.00;101245.66;5032635;28;20045;-86
2022/08/26 00:09:08;;;;;;;1.98;0.85;;;;;;;16.27;100.00;101221.09;5011510;28;20045;-86
2022/08/26 00:11:36;;;;;;;3.35;0.98;;;;;;;16.12;100.00;101236.84;5026845;28;20052;-86
2022/08/26 00:14:03;;;;;;;4.30;1.35;;;;;;;16.25;100.00;101244.09;5015572;28;20056;-87
2022/08/26 00:16:30;;;;;;;4.32;1.17;;;;;;;16.14;100.00;101236.75;5023656;28;20498;-87
2022/08/26 00:18:58;;;;;;;9.60;1.13;;;;;;;16.10;100.00;101237.88;5027563;28;20060;-87
2022/08/26 00:21:25;;;;;;;3.25;0.90;;;;;;;15.97;100.00;101231.50;5031273;28;20049;-86
2022/08/26 00:23:53;;;;;;;3.35;0.85;;;;;;;15.83;100.00;101235.72;5032259;28;20049;-87
2022/08/26 00:26:19;;;;;;;2.63;0.82;;;;;;;15.83;100.00;101240.13;5027691;28;20057;-87
2022/08/26 00:28:46;;;;;;;2.88;0.95;;;;;;;15.67;100.00;101233.00;5023827;28;20041;-87
2022/08/26 00:31:13;;;;;;;1.48;0.70;;;;;;;15.86;100.00;101247.91;5019486;28;20045;-87
2022/08/26 00:33:40;;;;;;;2.08;0.80;;;;;;;15.73;100.00;101253.78;5030580;28;20037;-87
2022/08/26 00:36:08;;;;;;;2.75;0.90;;;;;;;15.71;100.00;101260.09;5030396;28;20133;-87
2022/08/26 00:38:46;;;;;;;4.35;1.10;;;;;;;15.59;100.00;101245.72;5024732;28;20476;-87
2022/08/26 00:41:13;;;;;;;4.75;1.20;;;;;;;15.54;100.00;101242.44;5021273;28;20551;-87
2022/08/26 00:43:42;;;;;;;5.63;0.88;;;;;;;15.52;100.00;101255.72;5020314;28;20045;-87
2022/08/26 00:46:22;;;;;;;2.38;1.00;;;;;;;15.53;100.00;101257.44;5029278;28;20480;-87
2022/08/26 00:48:52;;;;;;;2.17;0.82;;;;;;;15.39;100.00;101244.09;5027939;28;20045;-87
2022/08/26 00:51:24;;;;;;;4.20;1.00;;;;;;;15.35;100.00;101243.38;5030139;28;20053;-87
2022/08/26 00:54:05;;;;;;;2.53;1.10;;;;;;;15.46;100.00;101250.75;5031036;28;20500;-86
2022/08/26 00:56:42;;;;;;;4.47;1.02;;;;;;;15.40;100.00;101253.69;5022897;28;20325;-87
2022/08/26 00:59:13;;;;;;;1.00;0.77;;;;;;;15.48;100.00;101254.19;5029508;28;20056;-86
2022/08/26 01:01:43;;;;;;;1.70;0.80;;;;;;;15.31;100.00;101240.97;5020501;28;20128;-87
2022/08/26 01:04:16;;;;;;;2.03;0.90;;;;;;;15.23;100.00;101245.75;5032195;28;20042;-87
2022/08/26 01:06:43;;;;;;;4.13;1.20;;;;;;;15.15;100.00;101246.13;5030536;28;20077;-87
2022/08/26 01:09:11;;;;;;;4.35;1.00;;;;;;;15.00;100.00;101239.84;5029978;28;20049;-87
2022/08/26 01:11:38;;;;;;;2.28;0.90;;;;;;;14.81;100.00;101250.38;5031098;28;20399;-87
2022/08/26 01:14:07;;;;;;;5.38;1.48;;;;;;;14.85;100.00;101254.59;5030781;28;20639;-87
2022/08/26 01:16:35;;;;;;;4.75;1.15;;;;;;;14.88;100.00;101259.72;5031782;28;20145;-87
2022/08/26 01:19:14;;;;;;;3.80;1.00;;;;;;;14.96;100.00;101261.97;5025738;28;20050;-87
2022/08/26 01:21:48;;;;;;;3.20;1.02;;;;;;;15.00;100.00;101263.56;5030000;28;20049;-87
2022/08/26 01:24:15;;;;;;;4.78;1.38;;;;;;;14.86;100.00;101253.66;5030088;28;20057;-87
2022/08/26 01:26:44;;;;;;;4.30;1.30;;;;;;;14.95;100.00;101268.19;5030489;28;20061;-87
2022/08/26 01:29:15;;;;;;;2.60;0.95;;;;;;;14.73;100.00;101256.03;5029504;28;20059;-86
2022/08/26 01:31:45;;;;;;;5.15;1.05;;;;;;;14.72;100.00;101267.50;5030533;28;20049;-87
2022/08/26 01:34:18;;;;;;;3.38;0.90;;;;;;;14.79;100.00;101262.78;5027801;28;20045;-87
2022/08/26 01:36:49;;;;;;;5.37;1.17;;;;;;;14.81;100.00;101253.88;5025390;28;20060;-86
2022/08/26 01:39:18;;;;;;;3.90;1.15;;;;;;;14.64;100.00;101251.16;5030689;28;20733;-87
2022/08/26 01:41:46;;;;;;;3.78;1.00;;;;;;;14.64;100.00;101243.25;5031442;28;20046;-87
2022/08/26 01:44:21;;;;;;;4.75;1.15;;;;;;;14.69;100.00;101258.88;5025182;28;20050;-87
2022/08/26 01:46:51;;;;;;;4.13;1.20;;;;;;;14.63;100.00;101257.38;5026989;28;20073;-86
2022/08/26 01:49:19;;;;;;;4.20;1.00;;;;;;;14.76;100.00;101268.19;5028434;28;20053;-87
2022/08/26 01:51:50;;;;;;;3.10;1.00;;;;;;;14.72;100.00;101264.00;5029862;28;20049;-87
2022/08/26 01:54:17;;;;;;;4.13;1.10;;;;;;;14.62;100.00;101268.84;5031677;28;20049;-87
2022/08/26 01:56:48;;;;;;;3.15;1.00;;;;;;;14.71;100.00;101267.56;5031480;28;20124;-87
2022/08/26 01:59:18;;;;;;;2.90;1.00;;;;;;;14.74;100.00;101270.91;5029523;28;20080;-86
2022/08/26 02:01:47;;;;;;;3.08;1.10;;;;;;;14.55;100.00;101281.41;5026949;28;20053;-87
2022/08/26 02:04:20;;;;;;;2.85;1.10;;;;;;;14.35;100.00;101286.72;5029751;28;20057;-87
2022/08/26 02:06:47;;;;;;;;;;;;;;;14.54;100.00;101286.75;5027757;28;20480;-86
2022/08/26 02:09:15;;;;;;;1.92;1.00;;;;;;;14.27;100.00;101287.09;5030360;28;19921;-87
2022/08/26 02:11:42;;;;;;;4.05;1.27;;;;;;;14.18;100.00;101288.34;5031361;28;20411;-85
2022/08/26 02:14:13;;;;;;;3.97;1.10;;;;;;;14.28;100.00;101303.72;5033122;28;20041;-86
2022/08/26 02:16:44;;;;;;;2.60;0.90;;;;;;;13.92;100.00;101271.03;5033353;28;20107;-86
2022/08/26 02:19:21;;;;;;;3.92;1.00;;;;;;;14.25;100.00;101309.97;5025647;28;20543;-86
2022/08/26 02:21:51;;;;;;;3.80;1.02;;;;;;;13.86;100.00;101318.66;5034069;28;20059;-86
2022/08/26 02:24:23;;;;;;;6.15;1.20;;;;;;;13.90;100.00;101309.72;5033493;28;20049;-86
2022/08/26 02:26:55;;;;;;;3.20;1.00;;;;;;;13.87;100.00;101317.75;5033702;28;20487;-86
2022/08/26 02:29:27;;;;;;;6.07;1.17;;;;;;;13.70;100.00;101313.19;5024729;28;20411;-86
2022/08/26 02:31:56;;;;;;;4.28;1.20;;;;;;;13.72;100.00;101315.75;5032962;28;20168;-86
2022/08/26 02:34:33;;;;;;;3.53;1.10;;;;;;;13.79;100.00;101318.09;5032700;28;20540;-86
2022/08/26 02:37:04;;;;;;;6.28;1.15;;;;;;;13.76;100.00;101317.34;5026680;28;20142;-86
2022/08/26 02:39:32;;;;;;;7.90;1.60;;;;;;;13.86;100.00;101321.28;5028697;28;20050;-86
2022/08/26 02:41:59;;;;;;;5.72;1.27;;;;;;;13.95;100.00;101320.94;5016547;28;20045;-85
2022/08/26 02:44:26;;;;;;;3.55;1.30;;;;;;;13.89;100.00;101323.81;5025640;28;20124;-86
2022/08/26 02:46:53;;;;;;;3.55;1.15;;;;;;;13.99;100.00;101321.66;5034050;28;20480;-86
2022/08/26 02:49:22;;;;;;;1.75;0.90;;;;;;;14.06;100.00;101323.09;5031762;28;20049;-86
2022/08/26 02:51:49;;;;;;;3.30;1.00;;;;;;;14.01;100.00;101322.44;5031660;28;20096;-85
2022/08/26 02:54:20;;;;;;;4.82;1.20;;;;;;;13.70;100.00;101326.34;5027077;28;20494;-86
2022/08/26 02:56:47;;;;;;;1.80;0.90;;;;;;;13.78;100.00;101310.25;5032507;28;20045;-85
2022/08/26 02:59:14;;;;;;;3.38;1.08;;;;;;;13.93;100.00;101311.38;5032490;28;20057;-86
2022/08/26 03:01:41;;;;;;;2.83;0.90;;;;;;;13.82;100.00;101314.47;5028180;28;20041;-86
2022/08/26 03:04:10;;;;;;;3.00;1.00;;;;;;;13.64;100.00;101314.28;5032708;28;20049;-86
2022/08/26 03:06:38;;;;;;;3.63;1.05;;;;;;;13.76;100.00;101320.00;5032885;28;20057;-85
2022/08/26 03:09:07;;;;;;;3.97;1.10;;;;;;;13.92;100.00;101331.59;5022714;28;20050;-87
2022/08/26 03:11:35;;;;;;;4.78;1.40;;;;;;;13.89;100.00;101344.00;5032530;28;20107;-87
2022/08/26 03:14:02;;;;;;;3.55;1.02;;;;;;;13.84;100.00;101323.97;5032236;28;20050;-86
2022/08/26 03:16:34;;;;;;;4.60;1.05;;;;;;;13.79;100.00;101327.72;5032704;28;20115;-86
2022/08/26 03:19:03;;;;;;;4.30;1.05;;;;;;;13.91;100.00;101332.50;5027897;28;20053;-86
2022/08/26 03:21:30;;;;;;;5.05;1.42;;;;;;;13.82;100.00;101319.72;5033382;28;20061;-87
2022/08/26 03:23:57;;;;;;;1.67;0.90;;;;;;;13.73;100.00;101320.97;5032970;28;20103;-87
2022/08/26 03:26:27;;;;;;;4.63;1.20;;;;;;;13.71;100.00;101330.69;5032585;28;20053;-87
2022/08/26 03:31:40;;;;;;;4.07;1.23;;;;;;;13.44;100.00;101336.16;5023134;28;20534;-87
2022/08/26 03:34:08;;;;;;;3.00;1.00;;;;;;;13.48;100.00;101336.91;5030547;28;20132;-87
2022/08/26 03:36:37;;;;;;;2.78;1.10;;;;;;;13.58;100.00;101332.97;5031934;28;20091;-87
2022/08/26 03:39:07;;;;;;;2.03;0.88;;;;;;;13.65;100.00;101317.78;5019239;28;20056;-86
2022/08/26 03:41:35;;;;;;;2.20;0.85;;;;;;;13.57;100.00;101317.25;5024440;28;20137;-86
2022/08/26 03:44:04;;;;;;;2.83;0.85;;;;;;;13.43;100.00;101304.66;5025870;28;20045;-86
2022/08/26 03:46:32;;;;;;;4.78;1.15;;;;;;;13.50;100.00;101319.28;5030365;28;21416;-86
2022/08/26 03:49:00;;;;;;;4.60;1.15;;;;;;;13.57;100.00;101325.16;5032551;28;20045;-87
2022/08/26 03:51:28;;;;;;;3.58;0.90;;;;;;;13.61;100.00;101329.34;5027595;28;20483;-87
2022/08/26 03:53:54;;;;;;;1.85;0.80;;;;;;;13.59;100.00;101320.66;5032569;28;20124;-87
2022/08/26 03:56:22;;;;;;;2.60;0.90;;;;;;;13.64;100.00;101337.13;5024353;28;20136;-86
2022/08/26 03:58:49;;;;;;;2.30;0.90;;;;;;;13.23;100.00;101334.34;5030298;28;20077;-87
2022/08/26 04:01:16;;;;;;;5.03;1.25;;;;;;;13.10;100.00;101328.69;5028286;28;20057;-87
2022/08/26 04:03:56;;;;;;;2.63;0.85;;;;;;;13.14;100.00;101330.31;5024117;28;20048;-87
2022/08/26 04:06:31;;;;;;;4.55;1.15;;;;;;;13.22;100.00;101341.38;5018719;28;20542;-86
2022/08/26 04:09:01;;;;;;;3.17;1.10;;;;;;;13.57;100.00;101333.03;5026976;28;20054;-87
2022/08/26 04:11:31;;;;;;;2.90;1.00;;;;;;;13.58;100.00;101335.63;5023015;28;20555;-88
2022/08/26 04:14:04;;;;;;;4.57;0.90;;;;;;;13.59;100.00;101339.09;5020746;28;20046;-86
2022/08/26 04:16:31;;;;;;;2.92;1.00;;;;;;;13.41;100.00;101330.16;5029370;28;20046;-87
2022/08/26 04:18:58;;;;;;;4.88;1.00;;;;;;;13.28;100.00;101333.25;5017400;28;20519;-87
2022/08/26 04:21:27;;;;;;;2.40;0.90;;;;;;;13.46;100.00;101346.63;5011910;28;20085;-87
2022/08/26 04:23:55;;;;;;;2.70;1.00;;;;;;;13.59;100.00;101341.72;5020604;28;20399;-87
2022/08/26 04:26:25;;;;;;;2.30;0.93;;;;;;;13.59;100.00;101346.97;5029962;28;20053;-87
2022/08/26 04:28:53;;;;;;;2.20;0.88;;;;;;;13.44;100.00;101341.41;5018121;28;20049;-86
2022/08/26 04:31:20;;;;;;;0.85;0.70;;;;;;;13.59;100.00;101344.34;5031252;28;20061;-87
2022/08/26 04:33:49;;;;;;;2.15;0.90;;;;;;;13.80;100.00;101356.63;5024044;28;20060;-87
2022/08/26 04:36:17;;;;;;;2.67;0.90;;;;;;;13.73;100.00;101352.53;5032974;28;20404;-87
2022/08/26 04:38:46;;;;;;;2.70;1.00;;;;;;;13.68;100.00;101344.81;5031260;28;20053;-88
2022/08/26 04:41:13;;;;;;;1.80;0.80;;;;;;;13.65;100.00;101346.72;5030881;28;20054;-87
2022/08/26 04:43:44;;;;;;;3.42;1.10;;;;;;;13.69;100.00;101356.22;5031220;28;20042;-87
2022/08/26 04:46:15;;;;;;;4.20;1.17;;;;;;;13.77;100.00;101362.00;5024077;28;20065;-87
2022/08/26 04:48:42;;;;;;;4.20;1.05;;;;;;;13.67;100.00;101361.53;5019613;28;20049;-87
2022/08/26 04:51:09;;;;;;;5.45;1.48;;;;;;;13.81;100.00;101370.63;5027541;28;20053;-87
2022/08/26 04:53:36;;;;;;;3.83;0.90;;;;;;;13.81;100.00;101360.97;5030650;28;20049;-87
2022/08/26 04:56:03;;;;;;;2.97;1.10;;;;;;;13.74;100.00;101356.00;5025074;28;20132;-87
2022/08/26 04:58:31;;;;;;;2.15;0.98;;;;;;;13.80;100.00;101358.41;5025991;28;20049;-87
2022/08/26 05:00:58;;;;;;;5.22;1.58;;;;;;;13.83;100.00;101360.94;5026038;28;20655;-87
2022/08/26 05:03:26;;;;;;;4.40;0.93;;;;;;;13.91;100.00;101369.34;5030210;28;20145;-87
2022/08/26 05:05:57;;;;;;;3.55;1.25;;;;;;;13.86;100.00;101358.16;5030139;28;20057;-87
2022/08/26 05:08:24;;;;;;;6.82;1.67;;;;;;;13.82;100.00;101356.56;5028855;28;20049;-87
2022/08/26 05:10:54;;;;;;;3.90;1.15;;;;;;;13.82;100.00;101354.78;5030260;28;20487;-87
2022/08/26 05:13:25;;;;;;;2.78;1.38;;;;;;;13.94;100.00;101363.13;5030667;28;20049;-87
2022/08/26 05:15:52;;;;;;;3.33;0.98;;;;;;;13.78;100.00;101357.63;5016302;28;20056;-87
2022/08/26 05:18:24;;;;;;;2.28;0.85;;;;;;;13.66;100.00;101362.44;5031196;28;20045;-88
2022/08/26 05:20:53;;;;;;;5.25;1.00;;;;;;;13.68;100.00;101371.13;5030358;28;20049;-87
2022/08/26 05:23:23;;;;;;;3.20;1.02;;;;;;;13.91;100.00;101377.25;5029094;28;20410;-88
2022/08/26 05:25:52;;;;;;;3.40;1.02;;;;;;;14.00;100.00;101379.47;5015814;28;20072;-87
2022/08/26 05:28:27;;;;;;;2.22;0.80;;;;;;;14.10;100.00;101369.44;5013225;28;20084;-88
2022/08/26 05:30:54;;;;;;;3.30;0.95;;;;;;;14.03;100.00;101360.09;5011253;28;20084;-87
2022/08/26 05:33:21;;;;;;;2.92;0.95;;;;;;;14.18;100.00;101383.16;5029794;28;20053;-87
2022/08/26 05:35:48;;;;;;;2.97;0.98;;;;;;;14.15;100.00;101375.38;5026138;28;20415;-87
2022/08/26 05:38:20;;;;;;;2.13;1.00;;;;;;;14.15;100.00;101364.00;5020817;28;20054;-85
2022/08/26 05:40:49;;;;;;;3.53;1.00;;;;;;;14.31;100.00;101396.66;5013447;28;20049;-88
2022/08/26 05:43:20;;;;;;;4.38;1.02;;;;;;;14.39;100.00;101397.16;5017455;28;20054;-86
2022/08/26 05:45:49;;;;;;;3.70;1.10;;;;;;;14.19;100.00;101361.13;5021546;28;20048;-86
2022/08/26 05:48:18;;;;;;;1.25;0.80;;;;;;;14.08;100.00;101341.44;5030957;28;20365;-87
2022/08/26 05:50:51;;;;;;;3.15;1.10;;;;;;;14.32;100.00;101397.50;5028637;28;20069;-87
2022/08/26 05:53:20;;;;;;;5.43;1.20;;;;;;;13.97;100.00;101395.44;5017552;28;20172;-87
2022/08/26 05:55:53;;;;;;;5.68;1.33;;;;;;;14.13;100.00;101385.13;5018712;28;20042;-88
2022/08/26 05:58:22;;;;;;;4.88;1.20;;;;;;;14.31;100.00;101387.91;5030037;28;20088;-89
2022/08/26 06:01:19;;;;;;;3.97;0.98;;;;;;;14.67;100.00;101390.72;5025519;28;20048;-87
2022/08/26 06:03:50;;;;;;;2.63;1.38;;;;;;;14.76;100.00;101390.31;5007976;28;20038;-87
2022/08/26 06:06:23;;;;;;;2.35;0.98;;;;;;;14.79;100.00;101395.44;5025221;28;20060;-87
2022/08/26 06:08:57;;;;;;;3.50;1.10;;;;;;;14.74;100.00;101404.50;5018856;28;20100;-87
2022/08/26 06:11:26;;;;;;;4.65;1.10;;;;;;;14.33;100.00;101402.69;5024195;28;20072;-87
2022/08/26 06:13:57;;;;;;;3.63;1.10;;;;;;;14.25;100.00;101399.53;5031791;28;20120;-86
2022/08/26 06:16:30;;;;;;;3.50;1.30;;;;;;;14.39;100.00;101397.16;5019090;28;20046;-87
2022/08/26 06:19:01;;;;;;;3.72;1.20;;;;;;;14.12;100.00;101390.44;5022604;28;20056;-86
2022/08/26 06:21:31;;;;;;;6.13;1.42;;;;;;;14.02;100.00;101404.00;5026470;28;20056;-86
2022/08/26 06:27:00;;;;;;;5.65;1.33;;;;;;;13.78;100.00;101405.00;5024306;28;20041;-86
2022/08/26 06:29:29;;;;;;;10.40;1.55;;;;;;;13.81;100.00;101391.69;5028419;28;20087;-86
2022/08/26 06:31:56;;;;;;;6.43;1.70;;;;;;;13.79;100.00;101401.44;5025851;28;20136;-87
2022/08/26 06:34:24;;;;;;;7.28;1.40;;;;;;;14.05;100.00;101403.00;5022086;28;20050;-87
2022/08/26 06:37:01;;;;;;;4.63;1.05;;;;;;;14.30;100.00;101404.59;5025459;28;20125;-86
2022/08/26 06:39:28;;;;;;;6.43;1.42;;;;;;;14.19;100.00;101384.84;5023981;28;20054;-87
2022/08/26 06:41:57;;;;;;;6.03;1.35;;;;;;;14.23;100.00;101391.69;5017759;28;20058;-88
2022/08/26 06:44:25;;;;;;;3.13;1.20;;;;;;;14.30;100.00;101397.56;5021871;28;20129;-88
2022/08/26 06:46:52;;;;;;;8.25;1.10;;;;;;;14.38;100.00;101392.81;5031486;28;20057;-88
2022/08/26 06:49:19;;;;;;;5.30;1.30;;;;;;;14.57;100.00;101392.88;5018485;28;20415;-87
2022/08/26 06:51:54;;;;;;;3.97;1.35;;;;;;;14.77;100.00;101415.75;5027240;28;20053;-87
2022/08/26 06:54:21;;;;;;;4.72;1.13;;;;;;;14.80;100.00;101399.81;5024389;28;20046;-87
2022/08/26 06:56:48;;;;;;;2.92;1.20;;;;;;;14.94;100.00;101409.75;5025900;28;20053;-87
2022/08/26 06:59:15;;;;;;;3.10;0.90;;;;;;;15.04;100.00;101404.88;5024625;28;20045;-87
2022/08/26 07:01:45;;;;;;;3.03;1.05;;;;;;;15.19;100.00;101398.03;5025401;28;20045;-87
2022/08/26 07:04:15;;;;;;;4.15;0.90;;;;;;;15.54;100.00;101411.38;5030046;28;20068;-87
2022/08/26 07:06:49;;;;;;;2.28;1.10;;;;;;;15.69;100.00;101409.78;5017345;28;20049;-89
2022/08/26 07:09:20;;;;;;;1.55;0.88;;;;;;;15.60;100.00;101408.44;5027018;28;20060;-89
2022/08/26 07:11:48;;;;;;;1.70;0.80;;;;;;;15.73;100.00;101409.53;5022424;28;20542;-88
2022/08/26 07:14:16;;;;;;;1.90;0.80;;;;;;;15.90;100.00;101410.53;5026484;28;20041;-89
2022/08/26 07:16:48;;;;;;;1.33;0.75;;;;;;;16.21;100.00;101409.03;5023220;28;20099;-88
2022/08/26 07:19:19;;;;;;;4.32;1.13;;;;;;;16.39;100.00;101408.06;5020405;28;20049;-88
2022/08/26 07:22:02;;;;;;;2.83;0.90;;;;;;;16.81;100.00;101401.47;5021145;28;20053;-88
2022/08/26 07:24:31;;;;;;;2.53;0.88;;;;;;;16.87;100.00;101374.75;5016905;28;20052;-89
2022/08/26 07:27:00;;;;;;;2.55;0.80;;;;;;;17.81;100.00;101405.72;5023109;28;20552;-88
2022/08/26 07:29:28;;;;;;;1.80;0.70;;;;;;;18.50;100.00;101400.84;5016126;28;20054;-88
2022/08/26 07:31:57;;;;;;;6.53;1.38;;;;;;;18.75;100.00;101416.09;5021484;28;20045;-89
2022/08/26 07:34:24;;;;;;;5.93;1.23;;;;;;;18.47;100.00;101409.84;5020615;28;20052;-89
2022/08/26 07:36:52;;;;;;;2.83;0.98;;;;;;;18.41;100.00;101415.50;5024381;28;20050;-89
2022/08/26 07:39:21;;;;;;;2.22;0.90;;;;;;;18.82;100.00;101409.50;5017019;28;20050;-89
2022/08/26 07:41:48;;;;;;;3.13;1.08;;;;;;;18.10;100.00;101414.69;5018793;28;20045;-89
2022/08/26 07:44:15;;;;;;;3.80;0.80;;;;;;;17.92;100.00;101411.31;5031463;28;20050;-89
2022/08/26 07:46:42;;;;;;;4.32;1.05;;;;;;;17.64;100.00;101398.75;5016926;28;20049;-89
2022/08/26 07:49:10;;;;;;;3.08;0.90;;;;;;;17.31;100.00;101406.78;5033541;28;20076;-88
2022/08/26 07:51:39;;;;;;;3.38;0.80;;;;;;;17.37;100.00;101409.09;5031466;28;20096;-89
2022/08/26 07:54:06;;;;;;;4.45;1.00;;;;;;;17.30;100.00;101405.94;5031241;28;20072;-88
2022/08/26 07:56:33;;;;;;;2.10;0.80;;;;;;;17.47;100.00;101407.63;5031136;28;20053;-88
2022/08/26 07:59:03;;;;;;;3.25;1.05;;;;;;;17.69;100.00;101412.59;5030724;28;20554;-88
2022/08/26 08:01:40;;;;;;;2.78;0.80;;;;;;;18.10;100.00;101411.19;5031645;28;20060;-88
2022/08/26 08:04:12;;;;;;;6.80;1.00;;;;;;;18.72;100.00;101413.66;5028194;28;20096;-88
2022/08/26 08:06:40;;;;;;;2.55;0.90;;;;;;;19.07;100.00;101413.28;5014452;28;20119;-88
2022/08/26 08:09:10;;;;;;;1.65;0.70;;;;;;;19.43;100.00;101404.81;5018077;28;20100;-89
2022/08/26 08:11:37;;;;;;;3.33;1.00;;;;;;;20.02;100.00;101409.00;5017020;28;20045;-89
2022/08/26 08:14:04;;;;;;;5.40;0.90;;;;;;;20.27;100.00;101403.75;5030419;28;20077;-88
2022/08/26 08:16:34;;;;;;;1.50;0.65;;;;;;;20.82;100.00;101408.88;5028412;28;20420;-88
2022/08/26 08:19:05;;;;;;;1.92;0.70;;;;;;;20.74;100.00;101417.41;5032136;28;20057;-88
2022/08/26 08:21:32;;;;;;;2.50;0.73;;;;;;;20.46;95.81;101391.81;5011957;28;20055;-88
2022/08/26 08:23:59;;;;;;;1.58;0.60;;;;;;;20.78;100.00;101378.13;5013399;28;20054;-88
2022/08/26 08:26:26;;;;;;;0.85;0.45;;;;;;;20.71;92.94;101414.94;5022329;28;20045;-89
2022/08/26 08:28:55;;;;;;;2.42;0.70;;;;;;;20.46;94.28;101413.94;5013488;28;20064;-89
2022/08/26 08:31:28;;;;;;;1.55;0.55;;;;;;;20.61;89.58;101421.81;5022491;28;20042;-89
2022/08/26 08:34:15;;;;;;;;;;;;;;;21.09;83.80;101419.38;5025026;28;20049;-90
2022/08/26 08:36:45;;;;;;;1.70;0.60;;;;;;;20.96;86.98;101408.75;5029525;28;20594;-90
2022/08/26 08:39:12;;;;;;;3.28;0.80;;;;;;;21.34;83.98;101396.31;5019435;28;20049;-89
2022/08/26 08:42:03;;;;;;;1.25;0.52;;;;;;;21.57;93.94;101413.31;5026046;28;20042;-90
2022/08/26 08:44:30;;;;;;;0.82;0.50;;;;;;;21.48;73.06;101403.31;5024410;28;20064;-88
2022/08/26 08:47:03;;;;;;;0.45;0.40;;;;;;;21.40;70.77;101407.38;5020411;28;20061;-89
2022/08/26 08:49:32;;;;;;;0.98;0.50;;;;;;;20.86;75.93;101413.03;5025071;28;20057;-87
2022/08/26 08:52:24;;;;;;;1.55;0.50;;;;;;;20.08;78.26;101406.78;5015707;28;20061;-86
2022/08/26 08:54:53;;;;;;;2.20;0.50;;;;;;;19.77;85.62;101423.91;5018750;28;20385;-87
2022/08/26 08:58:00;;;;;;;0.50;0.40;;;;;;;20.34;79.56;101413.94;5015990;28;20050;-87
2022/08/26 09:00:35;;;;;;;0.50;0.50;;;;;;;20.80;82.57;101400.16;5021184;28;20049;-88
2022/08/26 09:03:23;;;;;;;0.40;0.32;;;;;;;21.51;78.31;101417.25;5017891;28;20162;-88
2022/08/26 09:05:52;;;;;;;2.40;0.63;;;;;;;21.10;73.14;101409.59;5015612;28;20042;-88
2022/08/26 09:08:26;;;;;;;2.25;0.55;;;;;;;20.99;73.21;101411.19;5015467;28;20065;-88
2022/08/26 09:10:55;;;;;;;;;;;;;;;21.02;73.58;101415.47;5016265;28;20046;-88
2022/08/26 09:13:23;;;;;;;1.05;0.60;;;;;;;21.10;75.18;101414.91;5023750;28;20397;-88
2022/08/26 09:16:08;;;;;;;1.67;0.70;;;;;;;21.33;74.46;101413.25;5016407;28;20046;-88
2022/08/26 09:18:43;;;;;;;2.10;0.60;;;;;;;21.03;73.98;101399.38;5024334;28;20052;-90
2022/08/26 09:21:14;;;;;;;1.58;0.60;;;;;;;21.49;73.23;101407.69;5024867;28;20476;-88
2022/08/26 09:23:44;;;;;;;1.95;0.60;;;;;;;21.31;79.57;101372.56;5014837;28;20371;-89
2022/08/26 09:26:24;;;;;;;0.57;0.45;;;;;;;20.88;81.99;101416.44;5018897;28;20053;-88
2022/08/26 09:29:03;;;;;;;1.25;0.50;;;;;;;20.35;79.87;101405.88;5024398;28;20054;-88
2022/08/26 09:31:32;;;;;;;1.92;0.65;;;;;;;20.44;84.55;101412.38;5016367;28;20056;-89
2022/08/26 09:34:21;;;;;;;1.88;0.60;;;;;;;20.26;86.31;101403.84;5024250;28;20107;-89
2022/08/26 09:36:50;;;;;;;0.52;0.50;;;;;;;19.85;92.65;101412.78;5031954;28;20385;-89
2022/08/26 09:39:22;;;;;;;1.95;0.60;;;;;;;19.96;93.46;101414.72;5024484;28;20054;-89
2022/08/26 09:42:21;;;;;;;1.75;0.60;;;;;;;20.42;91.44;101407.16;5014465;28;20050;-89
2022/08/26 09:45:04;;;;;;;1.02;0.55;;;;;;;20.90;85.68;101397.69;5027427;28;20502;-89
2022/08/26 09:47:36;;;;;;;2.13;0.60;;;;;;;20.66;87.52;101395.78;5027333;28;20411;-89
2022/08/26 09:50:08;;;;;;;3.80;0.73;;;;;;;20.81;87.67;101396.53;5030029;28;20053;-89
2022/08/26 09:52:38;;;;;;;4.07;0.95;;;;;;;20.44;91.73;101397.25;5029387;28;20060;-90
2022/08/26 09:55:08;;;;;;;3.80;0.90;;;;;;;20.54;91.64;101397.47;5018295;28;20042;-88
2022/08/26 09:57:48;;;;;;;3.35;0.73;;;;;;;20.58;90.08;101400.78;5022354;28;20063;-89
2022/08/26 10:00:54;;;;;;;2.05;0.80;;;;;;;20.55;88.90;101369.06;5023752;28;20049;-89
2022/08/26 10:03:36;;;;;;;4.15;0.93;;;;;;;20.30;92.85;101392.03;5019961;28;20045;-89
2022/08/26 10:06:37;;;;;;;7.47;1.00;;;;;;;21.05;91.29;101393.94;5023392;28;20140;-89
2022/08/26 10:09:04;;;;;;;8.18;1.15;;;;;;;21.03;83.02;101393.19;5015707;28;20291;-89
2022/08/26 10:11:41;;;;;;;4.15;0.88;;;;;;;21.04;85.52;101386.91;5032024;28;20103;-89
2022/08/26 10:14:21;;;;;;;3.97;0.80;;;;;;;21.03;84.92;101386.09;5026736;28;20075;-89
2022/08/26 10:17:30;;;;;;;6.72;0.90;;;;;;;20.76;87.04;101393.34;5027232;28;20566;-89
2022/08/26 10:20:14;;;;;;;6.05;1.00;;;;;;;20.81;86.71;101397.38;4985079;28;20054;-89
2022/08/26 10:23:01;;;;;;;3.20;0.85;;;;;;;20.76;86.42;101412.81;5022206;28;20129;-89
2022/08/26 10:25:33;;;;;;;3.35;0.98;;;;;;;20.38;89.73;101407.44;5019151;28;20050;-89
2022/08/26 10:28:11;;;;;;;3.88;0.88;;;;;;;20.44;87.33;101393.75;5032336;28;20075;-89
2022/08/26 10:30:59;;;;;;;4.38;1.13;;;;;;;20.65;93.99;101404.75;5020322;28;20076;-89
2022/08/26 10:33:26;;;;;;;3.10;0.82;;;;;;;20.75;86.53;101403.16;5014830;28;20057;-89
2022/08/26 10:35:57;;;;;;;3.92;0.98;;;;;;;20.66;91.78;101401.09;5029888;28;20057;-89
2022/08/26 10:38:37;;;;;;;5.10;1.10;;;;;;;20.70;87.71;101413.25;5018360;28;20053;-89
2022/08/26 10:41:12;;;;;;;5.68;0.98;;;;;;;20.60;86.44;101407.69;5025180;28;20084;-89
2022/08/26 10:43:56;;;;;;;3.60;0.80;;;;;;;20.71;89.55;101398.97;5030343;28;20049;-89
2022/08/26 10:46:27;;;;;;;3.80;0.88;;;;;;;20.54;89.16;101402.78;5023104;28;20058;-89
2022/08/26 10:49:05;;;;;;;2.88;0.88;;;;;;;21.07;89.52;101393.81;5026722;28;20480;-89
2022/08/26 10:51:40;;;;;;;3.80;0.85;;;;;;;20.81;87.77;101377.91;5033570;28;20701;-89
2022/08/26 10:54:33;;;;;;;5.65;0.90;;;;;;;20.98;85.84;101400.66;5032309;28;20056;-89
2022/08/26 10:57:19;;;;;;;3.05;0.80;;;;;;;20.49;92.48;101415.56;5032457;28;20045;-89
2022/08/26 10:59:59;;;;;;;8.70;1.23;;;;;;;20.60;88.34;101406.84;5026101;28;20645;-89
2022/08/26 11:02:35;;;;;;;3.50;0.80;;;;;;;20.33;90.40;101410.44;5033746;28;20128;-88
2022/08/26 11:05:14;;;;;;;5.00;0.80;;;;;;;20.67;88.66;101416.97;5032872;28;20128;-89
2022/08/26 11:07:51;;;;;;;5.53;1.30;;;;;;;20.38;90.92;101413.63;5031233;28;20505;-88
2022/08/26 11:10:20;;;;;;;5.75;1.23;;;;;;;20.18;93.73;101411.47;5024047;28;20160;-89
2022/08/26 11:12:54;;;;;;;5.50;0.90;;;;;;;20.17;93.59;101412.41;5031991;28;20092;-89
2022/08/26 11:15:28;;;;;;;3.60;0.90;;;;;;;19.85;90.23;101418.09;5031701;28;20053;-90
2022/08/26 11:18:07;;;;;;;1.63;0.65;;;;;;;19.88;91.61;101408.13;5032150;28;20049;-89
2022/08/26 11:20:45;;;;;;;4.65;1.05;;;;;;;20.02;95.87;101401.00;5024285;28;20057;-89
2022/08/26 11:23:13;;;;;;;4.75;1.08;;;;;;;20.19;96.00;101414.03;5033177;28;20099;-89
2022/08/26 11:25:55;;;;;;;2.25;0.80;;;;;;;20.50;93.76;101409.25;5029648;28;20092;-89
2022/08/26 11:28:32;;;;;;;6.57;1.30;;;;;;;20.04;94.87;101410.59;5012258;28;20463;-89
2022/08/26 11:30:59;;;;;;;6.15;1.10;;;;;;;20.25;90.75;101405.63;5029527;28;20057;-90
2022/08/26 11:33:44;;;;;;;6.88;0.90;;;;;;;20.64;94.18;101398.56;5012763;28;20056;-89
2022/08/26 11:36:27;;;;;;;4.15;1.00;;;;;;;20.53;94.79;101394.91;5027814;28;20050;-89
2022/08/26 11:38:54;;;;;;;5.80;1.00;;;;;;;20.08;96.99;101387.31;5019583;28;20042;-90
2022/08/26 11:41:24;;;;;;;8.43;1.63;;;;;;;20.54;96.97;101394.81;5011873;28;20049;-89
2022/08/26 11:43:51;;;;;;;3.40;0.95;;;;;;;20.42;92.78;101388.53;5023631;28;20056;-89
2022/08/26 11:46:30;;;;;;;7.57;1.35;;;;;;;20.14;96.92;101404.66;5018032;28;20052;-90